sensor_id;sensor_type;location;lat;lon;timestamp;temperature;humidity
15991;DHT22;8100;50.994;4.538;2022-07-29T00:01:24;17.30;99.90
15991;DHT22;8100;50.994;4.538;2022-07-29T00:04:11;17.20;99.90
15991;DHT22;8100;50.994;4.538;2022-07-29T00:06:58;17.20;99.90
15991;DHT22;8100;50.994;4.538;2022-07-29T00:09:46;17.20;99.90
15991;DHT22;8100;50.994;4.538;2022-07-29T00:12:34;17.20;99.90
15991;DHT22;8100;50.994;4.538;2022-07-29T00:15:22;17.20;99.90
15991;DHT22;8100;50.994;4.538;2022-07-29T00:18:09;17.20;99.90
15991;DHT22;8100;50.994;4.538;2022-07-29T00:20:56;17.20;99.90
15991;DHT22;8100;50.994;4.538;2022-07-29T00:23:43;17.30;99.90
15991;DHT22;8100;50.994;4.538;2022-07-29T00:26:31;17.20;99.90
15991;DHT22;8100;50.994;4.538;2022-07-29T00:29:19;17.20;99.90
15991;DHT22;8100;50.994;4.538;2022-07-29T00:32:07;17.20;99.90
15991;DHT22;8100;50.994;4.538;2022-07-29T00:34:54;17.20;99.90
15991;DHT22;8100;50.994;4.538;2022-07-29T00:37:58;17.20;99.90
15991;DHT22;8100;50.994;4.538;2022-07-29T00:40:46;17.20;99.90
15991;DHT22;8100;50.994;4.538;2022-07-29T00:43:34;17.20;99.90
15991;DHT22;8100;50.994;4.538;2022-07-29T00:46:22;17.20;99.90
15991;DHT22;8100;50.994;4.538;2022-07-29T00:49:10;17.20;99.90
15991;DHT22;8100;50.994;4.538;2022-07-29T00:51:57;17.20;99.90
15991;DHT22;8100;50.994;4.538;2022-07-29T00:54:44;17.10;99.90
15991;DHT22;8100;50.994;4.538;2022-07-29T00:57:32;17.10;99.90
15991;DHT22;8100;50.994;4.538;2022-07-29T01:00:21;17.00;99.90
15991;DHT22;8100;50.994;4.538;2022-07-29T01:03:10;17.00;99.90
15991;DHT22;8100;50.994;4.538;2022-07-29T01:05:58;17.00;99.90
15991;DHT22;8100;50.994;4.538;2022-07-29T01:08:47;17.00;99.90
15991;DHT22;8100;50.994;4.538;2022-07-29T01:11:35;16.90;99.90
15991;DHT22;8100;50.994;4.538;2022-07-29T01:14:23;16.90;99.90
15991;DHT22;8100;50.994;4.538;2022-07-29T01:17:14;16.90;99.90
15991;DHT22;8100;50.994;4.538;2022-07-29T01:20:10;16.90;99.90
15991;DHT22;8100;50.994;4.538;2022-07-29T01:23:11;16.80;99.90
15991;DHT22;8100;50.994;4.538;2022-07-29T01:26:32;16.70;99.90
15991;DHT22;8100;50.994;4.538;2022-07-29T01:29:26;16.70;99.90
15991;DHT22;8100;50.994;4.538;2022-07-29T01:32:19;16.60;99.90
15991;DHT22;8100;50.994;4.538;2022-07-29T01:35:12;16.60;99.90
15991;DHT22;8100;50.994;4.538;2022-07-29T01:38:06;16.50;99.90
15991;DHT22;8100;50.994;4.538;2022-07-29T01:41:00;16.50;99.90
15991;DHT22;8100;50.994;4.538;2022-07-29T01:43:53;16.50;99.90
15991;DHT22;8100;50.994;4.538;2022-07-29T01:46:50;16.50;99.90
15991;DHT22;8100;50.994;4.538;2022-07-29T01:49:41;16.50;99.90
15991;DHT22;8100;50.994;4.538;2022-07-29T01:52:34;16.50;99.90
15991;DHT22;8100;50.994;4.538;2022-07-29T01:55:27;16.40;99.90
15991;DHT22;8100;50.994;4.538;2022-07-29T01:58:17;16.40;99.90
15991;DHT22;8100;50.994;4.538;2022-07-29T02:01:05;16.30;99.90
15991;DHT22;8100;50.994;4.538;2022-07-29T02:03:56;16.30;99.90
15991;DHT22;8100;50.994;4.538;2022-07-29T02:06:44;16.20;99.90
15991;DHT22;8100;50.994;4.538;2022-07-29T02:09:34;16.10;99.90
15991;DHT22;8100;50.994;4.538;2022-07-29T02:12:24;16.00;99.90
15991;DHT22;8100;50.994;4.538;2022-07-29T02:15:13;15.90;99.90
15991;DHT22;8100;50.994;4.538;2022-07-29T02:18:06;15.80;99.90
15991;DHT22;8100;50.994;4.538;2022-07-29T02:20:56;15.70;99.90
15991;DHT22;8100;50.994;4.538;2022-07-29T02:23:46;15.70;99.90
15991;DHT22;8100;50.994;4.538;2022-07-29T02:26:35;15.70;99.90
15991;DHT22;8100;50.994;4.538;2022-07-29T02:29:25;15.60;99.90
15991;DHT22;8100;50.994;4.538;2022-07-29T02:32:14;15.50;99.90
15991;DHT22;8100;50.994;4.538;2022-07-29T02:35:03;15.50;99.90
15991;DHT22;8100;50.994;4.538;2022-07-29T02:37:53;15.40;99.90
15991;DHT22;8100;50.994;4.538;2022-07-29T02:40:55;15.40;99.90
15991;DHT22;8100;50.994;4.538;2022-07-29T02:43:44;15.30;99.90
15991;DHT22;8100;50.994;4.538;2022-07-29T02:46:34;15.20;99.90
15991;DHT22;8100;50.994;4.538;2022-07-29T02:49:32;15.20;99.90
15991;DHT22;8100;50.994;4.538;2022-07-29T02:52:24;15.10;99.90
15991;DHT22;8100;50.994;4.538;2022-07-29T02:55:18;15.10;99.90
15991;DHT22;8100;50.994;4.538;2022-07-29T02:58:09;15.00;99.90
15991;DHT22;8100;50.994;4.538;2022-07-29T03:01:02;14.90;99.90
15991;DHT22;8100;50.994;4.538;2022-07-29T03:03:52;14.90;99.90
15991;DHT22;8100;50.994;4.538;2022-07-29T03:06:40;14.80;99.90
15991;DHT22;8100;50.994;4.538;2022-07-29T03:09:29;14.80;99.90
15991;DHT22;8100;50.994;4.538;2022-07-29T03:12:19;14.90;99.90
15991;DHT22;8100;50.994;4.538;2022-07-29T03:15:07;14.90;99.90
15991;DHT22;8100;50.994;4.538;2022-07-29T03:17:55;14.90;99.90
15991;DHT22;8100;50.994;4.538;2022-07-29T03:20:43;15.00;99.90
15991;DHT22;8100;50.994;4.538;2022-07-29T03:23:30;14.90;99.90
15991;DHT22;8100;50.994;4.538;2022-07-29T03:26:19;14.80;99.90
15991;DHT22;8100;50.994;4.538;2022-07-29T03:29:07;14.80;99.90
15991;DHT22;8100;50.994;4.538;2022-07-29T03:31:55;14.70;99.90
15991;DHT22;8100;50.994;4.538;2022-07-29T03:34:42;14.70;99.90
15991;DHT22;8100;50.994;4.538;2022-07-29T03:37:29;14.70;99.90
15991;DHT22;8100;50.994;4.538;2022-07-29T03:40:21;14.60;99.90
15991;DHT22;8100;50.994;4.538;2022-07-29T03:43:10;14.60;99.90
15991;DHT22;8100;50.994;4.538;2022-07-29T03:46:00;14.50;99.90
15991;DHT22;8100;50.994;4.538;2022-07-29T03:48:52;14.50;99.90
15991;DHT22;8100;50.994;4.538;2022-07-29T03:51:42;14.50;99.90
15991;DHT22;8100;50.994;4.538;2022-07-29T03:54:29;14.50;99.90
15991;DHT22;8100;50.994;4.538;2022-07-29T03:57:18;14.50;99.90
15991;DHT22;8100;50.994;4.538;2022-07-29T04:00:07;14.50;99.90
15991;DHT22;8100;50.994;4.538;2022-07-29T04:02:56;14.50;99.90
15991;DHT22;8100;50.994;4.538;2022-07-29T04:05:43;14.40;99.90
15991;DHT22;8100;50.994;4.538;2022-07-29T04:08:30;14.40;99.90
15991;DHT22;8100;50.994;4.538;2022-07-29T04:11:18;14.30;99.90
15991;DHT22;8100;50.994;4.538;2022-07-29T04:14:05;14.30;99.90
15991;DHT22;8100;50.994;4.538;2022-07-29T04:16:52;14.20;99.90
15991;DHT22;8100;50.994;4.538;2022-07-29T04:19:41;14.20;99.90
15991;DHT22;8100;50.994;4.538;2022-07-29T04:22:28;14.20;99.90
15991;DHT22;8100;50.994;4.538;2022-07-29T04:25:15;14.20;99.90
15991;DHT22;8100;50.994;4.538;2022-07-29T04:28:03;14.10;99.90
15991;DHT22;8100;50.994;4.538;2022-07-29T04:30:50;14.10;99.90
15991;DHT22;8100;50.994;4.538;2022-07-29T04:33:37;14.10;99.90
15991;DHT22;8100;50.994;4.538;2022-07-29T04:36:26;14.10;99.90
15991;DHT22;8100;50.994;4.538;2022-07-29T04:39:13;14.00;99.90
15991;DHT22;8100;50.994;4.538;2022-07-29T04:42:00;14.10;99.90
15991;DHT22;8100;50.994;4.538;2022-07-29T04:44:47;14.10;99.90
15991;DHT22;8100;50.994;4.538;2022-07-29T04:47:35;14.10;99.90
15991;DHT22;8100;50.994;4.538;2022-07-29T04:50:22;14.10;99.90
15991;DHT22;8100;50.994;4.538;2022-07-29T04:53:11;14.10;99.90
15991;DHT22;8100;50.994;4.538;2022-07-29T04:55:58;14.10;99.90
15991;DHT22;8100;50.994;4.538;2022-07-29T04:58:45;14.10;99.90
15991;DHT22;8100;50.994;4.538;2022-07-29T05:01:33;14.10;99.90
15991;DHT22;8100;50.994;4.538;2022-07-29T05:04:20;14.10;99.90
15991;DHT22;8100;50.994;4.538;2022-07-29T05:07:07;14.20;99.90
15991;DHT22;8100;50.994;4.538;2022-07-29T05:09:56;14.20;99.90
15991;DHT22;8100;50.994;4.538;2022-07-29T05:12:43;14.40;99.90
15991;DHT22;8100;50.994;4.538;2022-07-29T05:15:30;14.50;99.90
15991;DHT22;8100;50.994;4.538;2022-07-29T05:18:18;14.80;99.90
15991;DHT22;8100;50.994;4.538;2022-07-29T05:21:05;14.90;99.90
15991;DHT22;8100;50.994;4.538;2022-07-29T05:23:52;15.20;99.90
15991;DHT22;8100;50.994;4.538;2022-07-29T05:26:41;15.30;99.90
15991;DHT22;8100;50.994;4.538;2022-07-29T05:29:28;15.60;99.90
15991;DHT22;8100;50.994;4.538;2022-07-29T05:32:15;16.00;99.90
15991;DHT22;8100;50.994;4.538;2022-07-29T05:35:03;16.30;99.90
15991;DHT22;8100;50.994;4.538;2022-07-29T05:37:50;16.60;99.90
15991;DHT22;8100;50.994;4.538;2022-07-29T05:40:37;16.90;99.90
15991;DHT22;8100;50.994;4.538;2022-07-29T05:43:26;17.10;99.90
15991;DHT22;8100;50.994;4.538;2022-07-29T05:46:13;17.30;99.90
15991;DHT22;8100;50.994;4.538;2022-07-29T05:49:01;17.40;99.90
15991;DHT22;8100;50.994;4.538;2022-07-29T05:51:49;17.40;99.90
15991;DHT22;8100;50.994;4.538;2022-07-29T05:54:37;17.60;99.90
15991;DHT22;8100;50.994;4.538;2022-07-29T05:57:24;17.40;99.90
15991;DHT22;8100;50.994;4.538;2022-07-29T06:00:14;17.50;99.90
15991;DHT22;8100;50.994;4.538;2022-07-29T06:03:01;17.30;99.90
15991;DHT22;8100;50.994;4.538;2022-07-29T06:05:48;17.40;99.90
15991;DHT22;8100;50.994;4.538;2022-07-29T06:08:36;17.40;99.90
15991;DHT22;8100;50.994;4.538;2022-07-29T06:11:23;17.20;99.90
15991;DHT22;8100;50.994;4.538;2022-07-29T06:14:10;17.20;99.90
15991;DHT22;8100;50.994;4.538;2022-07-29T06:16:59;17.30;99.90
15991;DHT22;8100;50.994;4.538;2022-07-29T06:19:46;17.50;99.90
15991;DHT22;8100;50.994;4.538;2022-07-29T06:22:33;17.70;99.90
15991;DHT22;8100;50.994;4.538;2022-07-29T06:25:21;17.70;99.90
15991;DHT22;8100;50.994;4.538;2022-07-29T06:28:08;17.90;99.90
15991;DHT22;8100;50.994;4.538;2022-07-29T06:30:55;17.90;99.90
15991;DHT22;8100;50.994;4.538;2022-07-29T06:33:44;18.00;99.90
15991;DHT22;8100;50.994;4.538;2022-07-29T06:36:34;18.00;99.90
15991;DHT22;8100;50.994;4.538;2022-07-29T06:39:21;18.10;99.90
15991;DHT22;8100;50.994;4.538;2022-07-29T06:42:08;18.30;99.90
15991;DHT22;8100;50.994;4.538;2022-07-29T06:44:57;18.40;99.90
15991;DHT22;8100;50.994;4.538;2022-07-29T06:47:44;18.50;99.90
15991;DHT22;8100;50.994;4.538;2022-07-29T06:50:33;18.60;99.90
15991;DHT22;8100;50.994;4.538;2022-07-29T06:53:20;18.60;99.90
15991;DHT22;8100;50.994;4.538;2022-07-29T06:56:08;18.80;99.90
15991;DHT22;8100;50.994;4.538;2022-07-29T06:58:55;18.80;99.90
15991;DHT22;8100;50.994;4.538;2022-07-29T07:01:43;18.80;99.90
15991;DHT22;8100;50.994;4.538;2022-07-29T07:04:30;18.70;99.90
15991;DHT22;8100;50.994;4.538;2022-07-29T07:07:19;18.70;99.90
15991;DHT22;8100;50.994;4.538;2022-07-29T07:10:07;18.70;99.90
15991;DHT22;8100;50.994;4.538;2022-07-29T07:12:54;19.00;99.90
15991;DHT22;8100;50.994;4.538;2022-07-29T07:15:41;19.30;99.90
15991;DHT22;8100;50.994;4.538;2022-07-29T07:18:29;19.40;99.90
15991;DHT22;8100;50.994;4.538;2022-07-29T07:21:16;19.60;99.90
15991;DHT22;8100;50.994;4.538;2022-07-29T07:24:05;19.90;99.90
15991;DHT22;8100;50.994;4.538;2022-07-29T07:26:53;20.00;99.90
15991;DHT22;8100;50.994;4.538;2022-07-29T07:29:41;19.70;99.90
15991;DHT22;8100;50.994;4.538;2022-07-29T07:32:29;20.00;99.90
15991;DHT22;8100;50.994;4.538;2022-07-29T07:35:16;20.20;99.90
15991;DHT22;8100;50.994;4.538;2022-07-29T07:38:03;20.00;99.90
15991;DHT22;8100;50.994;4.538;2022-07-29T07:40:53;20.30;99.90
15991;DHT22;8100;50.994;4.538;2022-07-29T07:43:40;20.50;99.90
15991;DHT22;8100;50.994;4.538;2022-07-29T07:46:27;21.00;99.90
15991;DHT22;8100;50.994;4.538;2022-07-29T07:49:15;21.30;99.90
15991;DHT22;8100;50.994;4.538;2022-07-29T07:52:02;21.50;99.90
15991;DHT22;8100;50.994;4.538;2022-07-29T07:54:50;21.20;99.90
15991;DHT22;8100;50.994;4.538;2022-07-29T07:57:39;21.20;99.90
15991;DHT22;8100;50.994;4.538;2022-07-29T08:00:26;21.30;99.90
15991;DHT22;8100;50.994;4.538;2022-07-29T08:03:13;20.90;99.90
15991;DHT22;8100;50.994;4.538;2022-07-29T08:06:01;21.00;99.90
15991;DHT22;8100;50.994;4.538;2022-07-29T08:08:48;21.20;99.90
15991;DHT22;8100;50.994;4.538;2022-07-29T08:11:35;21.40;99.90
15991;DHT22;8100;50.994;4.538;2022-07-29T08:14:24;21.60;99.90
15991;DHT22;8100;50.994;4.538;2022-07-29T08:17:11;21.90;99.90
15991;DHT22;8100;50.994;4.538;2022-07-29T08:19:58;22.00;99.90
15991;DHT22;8100;50.994;4.538;2022-07-29T08:22:46;21.90;99.90
15991;DHT22;8100;50.994;4.538;2022-07-29T08:25:33;21.90;99.90
15991;DHT22;8100;50.994;4.538;2022-07-29T08:28:20;21.90;99.90
15991;DHT22;8100;50.994;4.538;2022-07-29T08:31:09;22.30;99.90
15991;DHT22;8100;50.994;4.538;2022-07-29T08:33:57;22.30;99.90
15991;DHT22;8100;50.994;4.538;2022-07-29T08:36:45;22.30;99.90
15991;DHT22;8100;50.994;4.538;2022-07-29T08:39:33;22.30;99.90
15991;DHT22;8100;50.994;4.538;2022-07-29T08:42:21;22.30;99.90
15991;DHT22;8100;50.994;4.538;2022-07-29T08:45:09;22.30;99.90
15991;DHT22;8100;50.994;4.538;2022-07-29T08:47:58;22.40;99.90
15991;DHT22;8100;50.994;4.538;2022-07-29T08:50:47;22.30;99.90
15991;DHT22;8100;50.994;4.538;2022-07-29T08:53:35;22.20;99.90
15991;DHT22;8100;50.994;4.538;2022-07-29T08:56:24;22.30;99.90
15991;DHT22;8100;50.994;4.538;2022-07-29T08:59:11;22.50;99.90
15991;DHT22;8100;50.994;4.538;2022-07-29T09:02:00;22.60;99.90
15991;DHT22;8100;50.994;4.538;2022-07-29T09:04:49;22.80;99.90
15991;DHT22;8100;50.994;4.538;2022-07-29T09:07:36;22.70;99.90
15991;DHT22;8100;50.994;4.538;2022-07-29T09:10:25;22.60;99.90
15991;DHT22;8100;50.994;4.538;2022-07-29T09:13:13;22.70;99.90
15991;DHT22;8100;50.994;4.538;2022-07-29T09:16:00;22.60;99.90
15991;DHT22;8100;50.994;4.538;2022-07-29T09:18:48;22.80;99.90
15991;DHT22;8100;50.994;4.538;2022-07-29T09:21:41;23.10;99.90
15991;DHT22;8100;50.994;4.538;2022-07-29T09:24:44;23.30;99.90
15991;DHT22;8100;50.994;4.538;2022-07-29T09:27:32;23.40;99.90
15991;DHT22;8100;50.994;4.538;2022-07-29T09:30:20;23.00;99.90
15991;DHT22;8100;50.994;4.538;2022-07-29T09:33:08;23.20;99.90
15991;DHT22;8100;50.994;4.538;2022-07-29T09:35:59;23.50;99.90
15991;DHT22;8100;50.994;4.538;2022-07-29T09:38:57;23.70;99.90
15991;DHT22;8100;50.994;4.538;2022-07-29T09:41:46;24.10;99.90
15991;DHT22;8100;50.994;4.538;2022-07-29T09:44:44;24.00;99.90
15991;DHT22;8100;50.994;4.538;2022-07-29T09:47:41;24.30;99.90
15991;DHT22;8100;50.994;4.538;2022-07-29T09:50:38;24.50;99.90
15991;DHT22;8100;50.994;4.538;2022-07-29T09:53:33;24.40;99.90
15991;DHT22;8100;50.994;4.538;2022-07-29T09:56:38;24.40;99.90
15991;DHT22;8100;50.994;4.538;2022-07-29T09:59:25;24.60;99.90
15991;DHT22;8100;50.994;4.538;2022-07-29T10:02:14;24.50;99.90
15991;DHT22;8100;50.994;4.538;2022-07-29T10:05:06;24.20;99.90
15991;DHT22;8100;50.994;4.538;2022-07-29T10:07:55;24.50;99.90
15991;DHT22;8100;50.994;4.538;2022-07-29T10:10:42;24.40;99.90
15991;DHT22;8100;50.994;4.538;2022-07-29T10:13:31;24.50;99.90
15991;DHT22;8100;50.994;4.538;2022-07-29T10:16:19;24.60;99.90
15991;DHT22;8100;50.994;4.538;2022-07-29T10:19:06;24.80;99.90
15991;DHT22;8100;50.994;4.538;2022-07-29T10:21:53;25.10;99.90
15991;DHT22;8100;50.994;4.538;2022-07-29T10:24:41;24.90;99.90
15991;DHT22;8100;50.994;4.538;2022-07-29T10:27:28;25.00;99.90
15991;DHT22;8100;50.994;4.538;2022-07-29T10:30:17;24.90;99.90
15991;DHT22;8100;50.994;4.538;2022-07-29T10:33:21;24.90;99.90
15991;DHT22;8100;50.994;4.538;2022-07-29T10:36:24;24.90;99.90
15991;DHT22;8100;50.994;4.538;2022-07-29T10:39:23;25.00;99.90
15991;DHT22;8100;50.994;4.538;2022-07-29T10:42:17;25.00;99.90
15991;DHT22;8100;50.994;4.538;2022-07-29T10:45:05;25.10;99.90
15991;DHT22;8100;50.994;4.538;2022-07-29T10:48:04;25.30;99.90
15991;DHT22;8100;50.994;4.538;2022-07-29T10:50:53;25.10;99.80
15991;DHT22;8100;50.994;4.538;2022-07-29T10:53:50;25.20;99.90
15991;DHT22;8100;50.994;4.538;2022-07-29T10:56:37;25.50;99.90
15991;DHT22;8100;50.994;4.538;2022-07-29T10:59:26;25.50;99.60
15991;DHT22;8100;50.994;4.538;2022-07-29T11:02:42;25.30;99.70
15991;DHT22;8100;50.994;4.538;2022-07-29T11:05:51;25.40;99.30
15991;DHT22;8100;50.994;4.538;2022-07-29T11:08:39;25.60;98.50
15991;DHT22;8100;50.994;4.538;2022-07-29T11:11:33;26.00;97.80
15991;DHT22;8100;50.994;4.538;2022-07-29T11:14:54;26.60;96.50
15991;DHT22;8100;50.994;4.538;2022-07-29T11:18:07;26.90;96.80
15991;DHT22;8100;50.994;4.538;2022-07-29T11:20:55;26.80;92.70
15991;DHT22;8100;50.994;4.538;2022-07-29T11:23:43;26.70;91.90
15991;DHT22;8100;50.994;4.538;2022-07-29T11:26:30;26.80;91.40
15991;DHT22;8100;50.994;4.538;2022-07-29T11:29:20;26.80;91.60
15991;DHT22;8100;50.994;4.538;2022-07-29T11:32:09;27.00;92.70
15991;DHT22;8100;50.994;4.538;2022-07-29T11:35:12;26.70;92.90
15991;DHT22;8100;50.994;4.538;2022-07-29T11:38:25;26.50;90.40
15991;DHT22;8100;50.994;4.538;2022-07-29T11:41:23;26.50;90.50
15991;DHT22;8100;50.994;4.538;2022-07-29T11:44:11;26.70;89.40
15991;DHT22;8100;50.994;4.538;2022-07-29T11:46:58;26.70;88.20
15991;DHT22;8100;50.994;4.538;2022-07-29T11:49:45;26.50;89.50
15991;DHT22;8100;50.994;4.538;2022-07-29T11:52:34;26.30;88.00
15991;DHT22;8100;50.994;4.538;2022-07-29T11:55:25;26.20;89.40
15991;DHT22;8100;50.994;4.538;2022-07-29T11:58:12;26.00;90.10
15991;DHT22;8100;50.994;4.538;2022-07-29T12:01:00;26.40;88.50
15991;DHT22;8100;50.994;4.538;2022-07-29T12:03:47;26.80;89.90
15991;DHT22;8100;50.994;4.538;2022-07-29T12:06:35;26.90;82.50
15991;DHT22;8100;50.994;4.538;2022-07-29T12:09:23;27.20;85.50
15991;DHT22;8100;50.994;4.538;2022-07-29T12:12:16;27.40;81.60
15991;DHT22;8100;50.994;4.538;2022-07-29T12:15:14;27.20;81.00
15991;DHT22;8100;50.994;4.538;2022-07-29T12:18:10;27.60;83.20
15991;DHT22;8100;50.994;4.538;2022-07-29T12:20:58;27.40;82.00
15991;DHT22;8100;50.994;4.538;2022-07-29T12:23:52;27.10;79.50
15991;DHT22;8100;50.994;4.538;2022-07-29T12:26:49;27.20;81.20
15991;DHT22;8100;50.994;4.538;2022-07-29T12:29:38;27.50;81.30
15991;DHT22;8100;50.994;4.538;2022-07-29T12:32:31;27.10;79.40
15991;DHT22;8100;50.994;4.538;2022-07-29T12:35:19;27.00;81.60
15991;DHT22;8100;50.994;4.538;2022-07-29T12:38:09;27.20;79.40
15991;DHT22;8100;50.994;4.538;2022-07-29T12:40:57;27.20;80.10
15991;DHT22;8100;50.994;4.538;2022-07-29T12:43:54;27.70;79.30
15991;DHT22;8100;50.994;4.538;2022-07-29T12:46:43;27.80;81.90
15991;DHT22;8100;50.994;4.538;2022-07-29T12:49:32;27.30;79.30
15991;DHT22;8100;50.994;4.538;2022-07-29T12:52:27;27.30;80.80
15991;DHT22;8100;50.994;4.538;2022-07-29T12:55:14;27.50;81.50
15991;DHT22;8100;50.994;4.538;2022-07-29T12:58:02;26.80;80.60
15991;DHT22;8100;50.994;4.538;2022-07-29T13:01:02;26.60;80.70
15991;DHT22;8100;50.994;4.538;2022-07-29T13:03:52;26.60;81.20
15991;DHT22;8100;50.994;4.538;2022-07-29T13:06:42;26.70;81.90
15991;DHT22;8100;50.994;4.538;2022-07-29T13:09:37;26.90;81.20
15991;DHT22;8100;50.994;4.538;2022-07-29T13:12:24;27.10;79.90
15991;DHT22;8100;50.994;4.538;2022-07-29T13:15:15;27.60;79.60
15991;DHT22;8100;50.994;4.538;2022-07-29T13:18:02;27.60;79.40
15991;DHT22;8100;50.994;4.538;2022-07-29T13:20:51;27.40;77.60
15991;DHT22;8100;50.994;4.538;2022-07-29T13:23:38;27.20;79.40
15991;DHT22;8100;50.994;4.538;2022-07-29T13:26:26;27.40;79.20
15991;DHT22;8100;50.994;4.538;2022-07-29T13:29:13;28.00;78.70
15991;DHT22;8100;50.994;4.538;2022-07-29T13:32:01;28.60;78.20
15991;DHT22;8100;50.994;4.538;2022-07-29T13:34:48;28.80;74.90
15991;DHT22;8100;50.994;4.538;2022-07-29T13:37:37;28.70;78.00
15991;DHT22;8100;50.994;4.538;2022-07-29T13:40:24;28.50;74.60
15991;DHT22;8100;50.994;4.538;2022-07-29T13:43:12;28.10;76.00
15991;DHT22;8100;50.994;4.538;2022-07-29T13:45:59;27.60;74.50
15991;DHT22;8100;50.994;4.538;2022-07-29T13:48:46;27.40;75.60
15991;DHT22;8100;50.994;4.538;2022-07-29T13:51:33;27.30;75.40
15991;DHT22;8100;50.994;4.538;2022-07-29T13:54:22;27.40;75.70
15991;DHT22;8100;50.994;4.538;2022-07-29T13:57:10;27.70;76.20
15991;DHT22;8100;50.994;4.538;2022-07-29T13:59:58;27.60;76.80
15991;DHT22;8100;50.994;4.538;2022-07-29T14:02:45;27.70;74.30
15991;DHT22;8100;50.994;4.538;2022-07-29T14:05:32;27.80;76.60
15991;DHT22;8100;50.994;4.538;2022-07-29T14:08:19;27.70;74.30
15991;DHT22;8100;50.994;4.538;2022-07-29T14:11:08;28.30;74.30
15991;DHT22;8100;50.994;4.538;2022-07-29T14:13:55;31.50;72.40
15991;DHT22;8100;50.994;4.538;2022-07-29T14:16:42;31.90;65.70
15991;DHT22;8100;50.994;4.538;2022-07-29T14:19:30;30.70;64.80
15991;DHT22;8100;50.994;4.538;2022-07-29T14:22:21;30.60;64.80
15991;DHT22;8100;50.994;4.538;2022-07-29T14:25:08;31.90;63.80
15991;DHT22;8100;50.994;4.538;2022-07-29T14:27:57;33.80;59.90
15991;DHT22;8100;50.994;4.538;2022-07-29T14:30:44;34.00;54.80
15991;DHT22;8100;50.994;4.538;2022-07-29T14:33:31;32.20;56.40
15991;DHT22;8100;50.994;4.538;2022-07-29T14:36:19;32.10;54.30
15991;DHT22;8100;50.994;4.538;2022-07-29T14:39:06;32.90;54.70
15991;DHT22;8100;50.994;4.538;2022-07-29T14:41:53;33.60;52.50
15991;DHT22;8100;50.994;4.538;2022-07-29T14:44:42;32.60;51.30
15991;DHT22;8100;50.994;4.538;2022-07-29T14:47:29;34.80;50.50
15991;DHT22;8100;50.994;4.538;2022-07-29T14:50:16;37.00;49.00
15991;DHT22;8100;50.994;4.538;2022-07-29T14:53:04;37.10;47.10
15991;DHT22;8100;50.994;4.538;2022-07-29T14:55:51;37.20;44.60
15991;DHT22;8100;50.994;4.538;2022-07-29T14:58:38;37.30;43.40
15991;DHT22;8100;50.994;4.538;2022-07-29T15:01:27;36.20;41.00
15991;DHT22;8100;50.994;4.538;2022-07-29T15:04:14;33.70;43.30
15991;DHT22;8100;50.994;4.538;2022-07-29T15:07:02;34.00;44.10
15991;DHT22;8100;50.994;4.538;2022-07-29T15:09:49;35.60;42.40
15991;DHT22;8100;50.994;4.538;2022-07-29T15:12:37;34.50;43.80
15991;DHT22;8100;50.994;4.538;2022-07-29T15:15:24;35.10;43.30
15991;DHT22;8100;50.994;4.538;2022-07-29T15:18:13;34.00;44.50
15991;DHT22;8100;50.994;4.538;2022-07-29T15:21:00;33.40;44.30
15991;DHT22;8100;50.994;4.538;2022-07-29T15:23:48;33.80;43.60
15991;DHT22;8100;50.994;4.538;2022-07-29T15:26:35;34.40;43.90
15991;DHT22;8100;50.994;4.538;2022-07-29T15:29:22;34.40;43.20
15991;DHT22;8100;50.994;4.538;2022-07-29T15:32:10;33.60;44.60
15991;DHT22;8100;50.994;4.538;2022-07-29T15:34:59;34.20;43.40
15991;DHT22;8100;50.994;4.538;2022-07-29T15:37:46;35.40;43.50
15991;DHT22;8100;50.994;4.538;2022-07-29T15:40:35;36.20;41.00
15991;DHT22;8100;50.994;4.538;2022-07-29T15:43:23;36.30;41.40
15991;DHT22;8100;50.994;4.538;2022-07-29T15:46:12;35.00;42.00
15991;DHT22;8100;50.994;4.538;2022-07-29T15:49:17;35.70;42.90
15991;DHT22;8100;50.994;4.538;2022-07-29T15:52:07;36.50;42.20
15991;DHT22;8100;50.994;4.538;2022-07-29T15:54:55;36.80;41.20
15991;DHT22;8100;50.994;4.538;2022-07-29T15:57:42;37.50;40.80
15991;DHT22;8100;50.994;4.538;2022-07-29T16:00:30;35.30;42.20
15991;DHT22;8100;50.994;4.538;2022-07-29T16:03:18;35.00;42.30
15991;DHT22;8100;50.994;4.538;2022-07-29T16:06:10;35.50;40.60
15991;DHT22;8100;50.994;4.538;2022-07-29T16:08:59;35.60;40.80
15991;DHT22;8100;50.994;4.538;2022-07-29T16:11:46;34.90;40.40
15991;DHT22;8100;50.994;4.538;2022-07-29T16:14:35;34.20;41.30
15991;DHT22;8100;50.994;4.538;2022-07-29T16:17:23;35.50;40.70
15991;DHT22;8100;50.994;4.538;2022-07-29T16:20:10;36.70;39.90
15991;DHT22;8100;50.994;4.538;2022-07-29T16:22:58;36.60;39.90
15991;DHT22;8100;50.994;4.538;2022-07-29T16:25:47;37.80;39.10
15991;DHT22;8100;50.994;4.538;2022-07-29T16:28:35;38.00;38.50
15991;DHT22;8100;50.994;4.538;2022-07-29T16:31:22;35.50;40.00
15991;DHT22;8100;50.994;4.538;2022-07-29T16:34:10;33.90;40.90
15991;DHT22;8100;50.994;4.538;2022-07-29T16:36:57;35.00;40.70
15991;DHT22;8100;50.994;4.538;2022-07-29T16:39:44;34.80;41.00
15991;DHT22;8100;50.994;4.538;2022-07-29T16:42:33;32.40;42.20
15991;DHT22;8100;50.994;4.538;2022-07-29T16:45:20;30.40;45.80
15991;DHT22;8100;50.994;4.538;2022-07-29T16:48:08;28.80;46.70
15991;DHT22;8100;50.994;4.538;2022-07-29T16:50:55;28.50;48.20
15991;DHT22;8100;50.994;4.538;2022-07-29T16:53:42;28.00;48.40
15991;DHT22;8100;50.994;4.538;2022-07-29T16:56:30;27.50;50.20
15991;DHT22;8100;50.994;4.538;2022-07-29T16:59:19;27.40;49.10
15991;DHT22;8100;50.994;4.538;2022-07-29T17:02:06;27.20;50.80
15991;DHT22;8100;50.994;4.538;2022-07-29T17:04:54;27.20;51.30
15991;DHT22;8100;50.994;4.538;2022-07-29T17:07:41;27.20;51.70
15991;DHT22;8100;50.994;4.538;2022-07-29T17:10:28;27.00;51.50
15991;DHT22;8100;50.994;4.538;2022-07-29T17:13:16;26.80;53.20
15991;DHT22;8100;50.994;4.538;2022-07-29T17:16:05;26.80;52.20
15991;DHT22;8100;50.994;4.538;2022-07-29T17:18:53;26.60;53.20
15991;DHT22;8100;50.994;4.538;2022-07-29T17:21:40;26.70;53.60
15991;DHT22;8100;50.994;4.538;2022-07-29T17:24:27;26.80;54.90
15991;DHT22;8100;50.994;4.538;2022-07-29T17:27:16;26.70;55.20
15991;DHT22;8100;50.994;4.538;2022-07-29T17:30:04;26.60;54.50
15991;DHT22;8100;50.994;4.538;2022-07-29T17:32:53;26.20;54.60
15991;DHT22;8100;50.994;4.538;2022-07-29T17:35:40;26.10;55.10
15991;DHT22;8100;50.994;4.538;2022-07-29T17:39:01;25.80;55.70
15991;DHT22;8100;50.994;4.538;2022-07-29T17:41:49;25.60;55.90
15991;DHT22;8100;50.994;4.538;2022-07-29T17:44:36;25.20;55.80
15991;DHT22;8100;50.994;4.538;2022-07-29T17:47:23;25.00;56.90
15991;DHT22;8100;50.994;4.538;2022-07-29T17:50:12;24.90;57.20
15991;DHT22;8100;50.994;4.538;2022-07-29T17:52:59;24.80;57.50
15991;DHT22;8100;50.994;4.538;2022-07-29T17:55:47;25.00;57.60
15991;DHT22;8100;50.994;4.538;2022-07-29T17:58:34;24.80;57.40
15991;DHT22;8100;50.994;4.538;2022-07-29T18:01:22;24.70;57.80
15991;DHT22;8100;50.994;4.538;2022-07-29T18:04:09;24.50;58.00
15991;DHT22;8100;50.994;4.538;2022-07-29T18:06:58;24.50;58.20